Time;durP1;ratioP1;P1;durP2;ratioP2;P2;SDS_P1;SDS_P2;PMS_P1;PMS_P2;Temp;Humidity;BMP_temperature;BMP_pressure;BME280_temperature;BME280_humidity;BME280_pressure;Samples;Min_cycle;Max_cycle;Signal;HPM_P1;HPM_P2
2023/12/17 00:32:28;;;;;;;9.18;5.43;;;;;;;8.83;90.98;101493.00;4715131;23;20118;-85
2023/12/17 00:34:57;;;;;;;9.18;6.32;;;;;;;8.67;91.67;101496.53;4936664;29;20056;-84
2023/12/17 00:42:27;;;;;;;9.45;5.78;;;;;;;8.28;93.22;101496.28;5741907;23;20048;-87
2023/12/17 00:44:56;;;;;;;10.50;6.10;;;;;;;8.17;94.21;101511.19;4934103;29;20498;-87
2023/12/17 00:47:28;;;;;;;8.68;5.18;;;;;;;8.05;95.75;101505.44;4934601;29;20517;-84
2023/12/17 00:50:01;;;;;;;9.13;5.38;;;;;;;7.95;96.82;101505.78;4931767;29;20107;-85
2023/12/17 00:52:30;;;;;;;11.57;6.28;;;;;;;7.86;97.64;101510.44;4931670;29;20056;-83
2023/12/17 00:54:59;;;;;;;7.40;4.82;;;;;;;7.75;98.90;101508.19;4927427;29;20238;-83
2023/12/17 00:57:28;;;;;;;8.45;5.10;;;;;;;7.65;100.00;101505.94;4929461;29;20052;-84
2023/12/17 00:59:59;;;;;;;8.88;5.60;;;;;;;7.56;100.00;101500.28;4928260;29;20086;-86
2023/12/17 01:02:30;;;;;;;6.88;4.72;;;;;;;7.55;100.00;101503.66;4930595;29;20493;-84
2023/12/17 01:04:59;;;;;;;7.50;4.95;;;;;;;7.57;100.00;101512.34;4925186;29;20134;-84
2023/12/17 01:07:28;;;;;;;10.68;5.43;;;;;;;7.55;100.00;101506.22;4930707;29;20075;-85
2023/12/17 01:10:06;;;;;;;10.95;5.47;;;;;;;7.54;99.95;101512.19;4930957;29;20143;-84
2023/12/17 01:12:35;;;;;;;9.57;5.60;;;;;;;7.43;99.66;101508.16;4932338;29;20061;-83
2023/12/17 01:15:04;;;;;;;7.60;4.75;;;;;;;7.44;100.00;101515.06;4933759;29;20130;-84
2023/12/17 01:17:35;;;;;;;10.43;5.40;;;;;;;7.43;99.69;101516.75;4931151;28;20063;-83
2023/12/17 01:20:12;;;;;;;9.50;5.35;;;;;;;7.40;99.42;101523.41;4932248;29;20102;-83
2023/12/17 01:22:41;;;;;;;13.10;6.53;;;;;;;7.35;98.83;101518.00;4933995;29;20075;-84
2023/12/17 01:25:10;;;;;;;10.40;5.45;;;;;;;7.25;97.12;101523.47;4934909;29;20047;-84
2023/12/17 01:27:39;;;;;;;11.15;5.85;;;;;;;7.16;98.62;101529.00;4938149;29;20047;-84
2023/12/17 01:30:12;;;;;;;9.50;5.70;;;;;;;7.03;99.54;101537.72;4940670;29;20065;-84
2023/12/17 01:32:42;;;;;;;9.73;5.65;;;;;;;7.03;100.00;101536.81;4934254;29;20052;-83
2023/12/17 01:35:12;;;;;;;11.65;6.15;;;;;;;7.02;100.00;101546.22;4933625;29;20048;-83
2023/12/17 01:37:43;;;;;;;11.68;6.53;;;;;;;6.97;100.00;101541.66;4946351;29;20062;-84
2023/12/17 01:40:15;;;;;;;10.15;5.90;;;;;;;6.90;99.94;101546.44;4931671;29;20051;-84
2023/12/17 01:42:44;;;;;;;12.98;6.35;;;;;;;6.79;100.00;101542.34;4917992;29;20066;-84
2023/12/17 01:45:13;;;;;;;7.65;5.60;;;;;;;6.60;100.00;101531.81;4932668;29;20064;-84
2023/12/17 01:47:44;;;;;;;10.10;4.75;;;;;;;6.45;100.00;101531.81;4937779;29;20103;-86
2023/12/17 01:50:16;;;;;;;8.38;5.00;;;;;;;6.41;100.00;101541.00;4922288;29;20055;-84
2023/12/17 01:52:45;;;;;;;7.30;4.80;;;;;;;6.40;100.00;101536.66;4923106;29;20044;-84
2023/12/17 01:55:15;;;;;;;16.35;6.55;;;;;;;6.44;100.00;101536.06;4934456;29;20079;-85
2023/12/17 01:57:45;;;;;;;12.63;6.55;;;;;;;6.41;100.00;101538.44;4934487;29;20051;-84
2023/12/17 02:00:21;;;;;;;14.38;6.90;;;;;;;6.40;100.00;101534.09;4935229;29;20058;-84
2023/12/17 02:02:52;;;;;;;8.00;5.45;;;;;;;6.35;100.00;101542.34;4922881;29;20082;-84
2023/12/17 02:05:21;;;;;;;8.02;5.28;;;;;;;6.26;100.00;101542.69;4943067;29;20056;-83
2023/12/17 02:07:55;;;;;;;12.45;6.50;;;;;;;6.15;100.00;101551.44;4941299;29;20044;-83
2023/12/17 02:10:24;;;;;;;10.38;7.45;;;;;;;6.00;100.00;101547.16;4934947;29;20051;-82
2023/12/17 02:12:54;;;;;;;13.77;7.03;;;;;;;5.91;100.00;101538.88;4934694;29;20421;-83
2023/12/17 02:15:22;;;;;;;11.15;7.25;;;;;;;5.87;100.00;101547.16;4936352;29;20056;-81
2023/12/17 02:17:57;;;;;;;15.27;7.72;;;;;;;5.77;100.00;101544.81;4932126;29;20047;-80
2023/12/17 02:20:26;;;;;;;12.13;6.75;;;;;;;5.72;100.00;101548.78;4926562;29;20131;-81
2023/12/17 02:23:00;;;;;;;10.63;6.88;;;;;;;5.68;100.00;101555.44;4938593;29;20066;-82
2023/12/17 02:25:43;;;;;;;12.15;6.00;;;;;;;5.65;100.00;101556.09;4929472;29;20059;-82
2023/12/17 02:28:12;;;;;;;9.85;5.85;;;;;;;5.68;100.00;101558.00;4926206;29;20060;-83
2023/12/17 02:30:41;;;;;;;11.88;5.93;;;;;;;5.71;100.00;101555.59;4938310;29;20051;-83
2023/12/17 02:33:09;;;;;;;10.52;5.97;;;;;;;5.72;100.00;101546.22;4946915;29;20067;-83
2023/12/17 02:35:43;;;;;;;9.02;5.43;;;;;;;5.64;100.00;101544.06;4934870;29;20048;-82
2023/12/17 02:38:11;;;;;;;10.85;6.07;;;;;;;5.45;100.00;101536.00;4939316;29;20576;-83
2023/12/17 02:40:43;;;;;;;11.25;6.75;;;;;;;5.29;100.00;101539.31;4932592;29;20622;-82
2023/12/17 02:43:15;;;;;;;12.93;6.88;;;;;;;5.21;100.00;101541.38;4946354;29;20146;-81
2023/12/17 02:45:47;;;;;;;14.75;7.03;;;;;;;5.19;100.00;101540.38;4938764;29;20054;-82
2023/12/17 02:48:16;;;;;;;8.63;5.18;;;;;;;5.13;100.00;101540.00;4936444;29;20054;-83
2023/12/17 02:50:51;;;;;;;13.35;6.55;;;;;;;5.19;100.00;101550.66;4937609;29;20125;-87
2023/12/17 02:53:26;;;;;;;12.15;6.25;;;;;;;5.22;100.00;101548.28;4935246;29;20512;-88
2023/12/17 02:55:56;;;;;;;13.50;5.65;;;;;;;5.24;100.00;101550.94;4938338;29;20070;-83
2023/12/17 02:58:25;;;;;;;14.65;6.25;;;;;;;5.24;100.00;101556.97;4941965;29;20103;-86
2023/12/17 03:01:05;;;;;;;12.00;6.00;;;;;;;5.21;100.00;101541.38;4962259;29;20091;-85
2023/12/17 03:03:37;;;;;;;14.27;6.75;;;;;;;5.20;100.00;101549.88;4947665;28;20245;-85
2023/12/17 03:06:06;;;;;;;12.13;5.97;;;;;;;5.11;100.00;101544.16;4955131;28;20098;-88
2023/12/17 03:14:04;;;;;;;10.68;6.13;;;;;;;4.98;100.00;101528.75;5733124;23;20115;-85
2023/12/17 03:16:32;;;;;;;;;;;;;;;5.02;100.00;101534.19;4944661;29;20113;-85
2023/12/17 03:21:45;;;;;;;10.13;5.78;;;;;;;4.89;100.00;101551.25;5751312;23;20052;-85
2023/12/17 03:24:14;;;;;;;12.82;6.07;;;;;;;4.83;100.00;101551.72;4907135;29;20112;-85
2023/12/17 03:26:44;;;;;;;10.85;5.82;;;;;;;4.80;100.00;101542.16;4911559;29;20131;-86
2023/12/17 03:37:07;;;;;;;13.10;6.70;;;;;;;4.65;100.00;101565.91;5310667;23;20072;-87
2023/12/17 03:39:41;;;;;;;11.90;6.60;;;;;;;4.61;100.00;101569.94;5440918;23;20082;-87
2023/12/17 03:42:10;;;;;;;7.20;4.95;;;;;;;4.52;100.00;101577.91;4903745;29;20152;-85
2023/12/17 03:44:45;;;;;;;13.68;6.40;;;;;;;4.44;100.00;101575.59;4912841;29;20051;-85
2023/12/17 03:47:14;;;;;;;11.65;6.38;;;;;;;4.40;100.00;101577.09;4914933;29;20052;-86
2023/12/17 03:49:43;;;;;;;12.60;6.57;;;;;;;4.46;100.00;101574.03;4921928;29;20057;-84
2023/12/17 03:52:14;;;;;;;9.95;6.53;;;;;;;4.44;100.00;101573.03;4920218;29;20056;-86
2023/12/17 03:54:53;;;;;;;11.13;6.10;;;;;;;4.46;100.00;101586.84;4911536;29;20048;-85
2023/12/17 04:13:06;;;;;;;11.52;6.45;;;;;;;4.26;100.00;101586.41;4964845;23;20082;-86
2023/12/17 04:25:50;;;;;;;15.35;6.60;;;;;;;4.19;100.00;101589.31;5531081;23;20135;-84
2023/12/17 04:28:28;;;;;;;13.85;7.85;;;;;;;4.17;100.00;101589.22;4938373;29;20142;-84
2023/12/17 04:30:58;;;;;;;15.20;7.95;;;;;;;4.13;100.00;101587.22;4934083;29;20051;-84
2023/12/17 04:33:27;;;;;;;11.70;6.43;;;;;;;4.14;100.00;101591.56;4941848;29;20043;-85
2023/12/17 04:35:57;;;;;;;14.38;7.53;;;;;;;4.10;100.00;101592.16;4939694;29;20075;-85
2023/12/17 04:38:35;;;;;;;14.70;6.72;;;;;;;4.07;100.00;101579.13;4944190;29;20058;-85
2023/12/17 04:41:04;;;;;;;15.05;7.22;;;;;;;4.08;100.00;101585.16;4937004;29;20066;-87
2023/12/17 04:43:36;;;;;;;13.98;7.38;;;;;;;4.04;100.00;101601.09;4940676;29;20060;-83
2023/12/17 04:46:09;;;;;;;16.33;7.78;;;;;;;3.92;100.00;101589.19;4935026;29;20059;-85
2023/12/17 04:48:38;;;;;;;12.85;6.80;;;;;;;3.86;100.00;101593.88;4934972;29;20052;-85
2023/12/17 04:51:21;;;;;;;;;;;;;;;;;;;;;
2023/12/17 05:19:58;;;;;;;16.15;6.85;;;;;;;3.49;100.00;101595.53;5686233;23;20056;-85
2023/12/17 05:22:31;;;;;;;15.23;7.07;;;;;;;3.51;100.00;101599.97;4938109;28;20028;-86
2023/12/17 05:25:15;;;;;;;18.05;7.47;;;;;;;3.59;100.00;101599.63;4940316;28;20040;-88
2023/12/17 05:27:47;;;;;;;12.90;6.50;;;;;;;3.59;100.00;101586.81;4946535;29;20055;-88
2023/12/17 05:30:22;;;;;;;12.55;7.25;;;;;;;3.61;100.00;101588.72;4936814;29;20090;-86
2023/12/17 16:21:39;;;;;;;7.15;5.25;;;;;;;0.38;100.00;101466.31;6163535;22;2922944;-84
2023/12/17 16:24:08;;;;;;;40.78;20.10;;;;;;;0.45;100.00;101460.97;6281427;22;20087;-87
2023/12/17 16:26:37;;;;;;;90.93;38.83;;;;;;;0.53;100.00;101449.75;6288534;22;20019;-85
2023/12/17 16:29:06;;;;;;;15.13;5.97;;;;;;;0.65;100.00;101431.13;6283737;22;20027;-86
2023/12/17 16:31:49;;;;;;;7.15;4.80;;;;;;;0.77;100.00;101424.47;6282204;22;20023;-85
2023/12/17 16:34:21;;;;;;;24.27;10.90;;;;;;;0.85;100.00;101423.41;6282929;22;20041;-85
2023/12/17 17:02:44;;;;;;;5.93;3.78;;;;;;;1.62;100.00;101444.66;6262952;22;20023;-89
2023/12/17 17:05:23;;;;;;;9.87;3.53;;;;;;;1.59;100.00;101444.44;6299844;22;20049;-86
2023/12/17 17:07:52;;;;;;;8.10;4.50;;;;;;;1.62;100.00;101454.84;6299785;22;20023;-86
2023/12/17 17:10:22;;;;;;;6.88;4.05;;;;;;;1.63;100.00;101452.44;6283310;22;20023;-84
2023/12/17 17:12:54;;;;;;;8.20;3.75;;;;;;;1.61;100.00;101463.28;6284298;22;20038;-89
2023/12/17 17:15:31;;;;;;;8.88;3.80;;;;;;;1.59;100.00;101454.63;6285802;22;20019;-85
2023/12/17 17:18:03;;;;;;;5.05;3.70;;;;;;;1.61;100.00;101453.09;6283579;22;20019;-84
2023/12/17 17:20:42;;;;;;;;;;;;;;;;;;;;;
2023/12/17 17:46:42;;;;;;;5.40;4.05;;;;;;;1.63;100.00;101405.63;6290436;22;20030;-89
2023/12/17 18:30:36;;;;;;;11.98;4.57;;;;;;;2.57;100.00;101387.88;6290397;22;20435;-85
2023/12/17 18:33:08;;;;;;;7.38;4.35;;;;;;;2.68;100.00;101378.38;6279902;22;20050;-84
2023/12/17 18:35:41;;;;;;;6.43;4.30;;;;;;;2.82;100.00;101377.72;6282993;22;20016;-84
2023/12/17 18:38:11;;;;;;;6.45;3.55;;;;;;;2.84;100.00;101385.47;6281873;22;20015;-83
2023/12/17 18:40:40;;;;;;;5.28;3.42;;;;;;;2.75;100.00;101384.81;6283635;22;20015;-84
2023/12/17 18:43:09;;;;;;;5.45;3.38;;;;;;;2.79;100.00;101397.94;6285164;22;20070;-85
2023/12/17 18:45:48;;;;;;;6.72;3.30;;;;;;;2.84;100.00;101378.72;6283737;22;20050;-86
2023/12/17 18:48:17;;;;;;;5.38;3.40;;;;;;;2.89;100.00;101345.81;6285519;22;20022;-83
2023/12/17 19:04:50;;;;;;;24.30;15.38;;;;;;;3.86;100.00;101366.03;6282770;22;20019;-86
2023/12/17 19:07:22;;;;;;;38.70;20.35;;;;;;;3.96;100.00;101363.31;6297436;22;20079;-86
2023/12/17 19:20:15;;;;;;;6.32;4.38;;;;;;;4.80;100.00;101354.09;6286684;22;20016;-87
2023/12/17 19:22:54;;;;;;;;;;;;;;;;;;;;;
2023/12/17 19:25:23;;;;;;;5.90;3.92;;;;;;;5.11;100.00;101331.25;6286145;22;20026;-83
2023/12/17 19:27:55;;;;;;;6.10;4.35;;;;;;;5.11;100.00;101326.13;6291542;22;20000;-84
2023/12/17 19:30:27;;;;;;;9.68;4.88;;;;;;;5.07;100.00;101319.00;6295682;22;20023;-87
2023/12/17 19:33:01;;;;;;;8.23;4.57;;;;;;;5.23;100.00;101308.88;6299661;22;20012;-83
2023/12/17 19:35:33;;;;;;;7.80;4.55;;;;;;;5.24;100.00;101281.53;6289194;22;20004;-86
2023/12/17 19:38:05;;;;;;;6.95;4.38;;;;;;;5.31;100.00;101270.84;6291211;22;20019;-84
2023/12/17 19:40:42;;;;;;;9.13;4.95;;;;;;;5.41;100.00;101259.44;6286690;22;20102;-87
2023/12/17 19:43:13;;;;;;;6.38;4.10;;;;;;;5.60;100.00;101249.44;6281246;22;20020;-85
2023/12/17 19:45:43;;;;;;;5.63;4.03;;;;;;;5.73;100.00;101234.75;6275798;22;20089;-87
2023/12/17 19:48:22;;;;;;;4.43;3.42;;;;;;;5.90;100.00;101236.56;6276026;22;20026;-86
2023/12/17 19:50:53;;;;;;;5.20;3.65;;;;;;;6.06;100.00;101241.78;6278150;22;20015;-82
2023/12/17 19:53:23;;;;;;;6.05;3.92;;;;;;;6.22;98.84;101245.22;6273410;22;20016;-84
2023/12/17 19:55:53;;;;;;;6.35;3.35;;;;;;;6.31;99.41;101235.44;6272091;22;20019;-84
2023/12/17 19:58:23;;;;;;;5.43;3.83;;;;;;;6.35;98.06;101219.38;6273817;22;20508;-85
2023/12/17 20:00:52;;;;;;;6.05;4.03;;;;;;;6.40;97.71;101205.09;6274183;22;20059;-83
2023/12/17 20:03:21;;;;;;;5.15;3.88;;;;;;;6.44;98.33;101193.28;6257430;22;20034;-83
2023/12/17 20:05:52;;;;;;;9.00;5.88;;;;;;;6.60;100.00;101174.41;6269692;22;20124;-82
2023/12/17 20:08:24;;;;;;;11.82;7.70;;;;;;;6.57;98.43;101167.41;6275480;22;20019;-83
2023/12/17 20:10:57;;;;;;;21.10;12.50;;;;;;;6.68;100.00;101188.53;6272229;22;20019;-84
2023/12/17 20:13:25;;;;;;;;;;;;;;;6.71;100.00;101199.88;6274601;22;20023;-82
2023/12/17 20:15:57;;;;;;;5.43;3.85;;;;;;;6.65;96.05;101185.81;6274969;22;19946;-86
2023/12/17 20:18:29;;;;;;;6.70;3.77;;;;;;;6.55;97.00;101192.16;6274428;22;20020;-85
2023/12/17 20:21:01;;;;;;;5.10;3.73;;;;;;;6.44;98.56;101193.28;6273051;22;20250;-86
2023/12/17 20:23:31;;;;;;;5.20;3.47;;;;;;;6.21;100.00;101199.78;6274480;22;20526;-85
2023/12/17 20:26:00;;;;;;;5.70;3.70;;;;;;;5.93;98.14;101203.34;6273793;22;20015;-83
2023/12/17 20:28:32;;;;;;;5.85;4.25;;;;;;;5.77;99.46;101190.44;6272853;22;20070;-84
2023/12/17 20:31:02;;;;;;;6.22;3.72;;;;;;;5.61;99.70;101192.19;6274279;22;20016;-86
2023/12/17 20:33:31;;;;;;;6.53;3.95;;;;;;;5.53;100.00;101185.72;6273348;22;20024;-82
2023/12/17 20:36:08;;;;;;;6.03;3.83;;;;;;;5.38;100.00;101174.56;6273580;22;20053;-85
2023/12/17 20:38:38;;;;;;;6.97;3.50;;;;;;;5.21;100.00;101161.66;6275093;22;20016;-86
2023/12/17 20:41:07;;;;;;;5.45;3.38;;;;;;;5.13;100.00;101149.19;6273364;22;20011;-85
2023/12/17 20:43:37;;;;;;;4.80;3.28;;;;;;;5.11;100.00;101144.00;6275237;22;20019;-84
2023/12/17 20:46:08;;;;;;;5.70;3.70;;;;;;;5.19;100.00;101135.03;6277723;22;20023;-83
2023/12/17 20:48:37;;;;;;;6.10;3.85;;;;;;;5.27;100.00;101116.63;6274766;22;20020;-85
2023/12/17 20:51:08;;;;;;;7.30;3.83;;;;;;;5.33;100.00;101111.84;6274564;22;20012;-86
2023/12/17 20:53:37;;;;;;;5.22;3.55;;;;;;;5.33;100.00;101105.03;6275910;22;20026;-83
2023/12/17 20:56:06;;;;;;;6.22;3.60;;;;;;;5.36;100.00;101088.91;6275367;22;20019;-83
2023/12/17 20:58:37;;;;;;;6.05;3.42;;;;;;;5.48;100.00;101089.63;6275168;22;20032;-84
2023/12/17 21:01:06;;;;;;;5.28;3.53;;;;;;;5.39;100.00;101101.94;6275472;22;20019;-83
2023/12/17 21:03:35;;;;;;;6.60;3.15;;;;;;;5.40;100.00;101101.13;6276479;22;20057;-83
2023/12/17 21:06:04;;;;;;;4.82;3.03;;;;;;;5.50;100.00;101112.78;6275795;22;20027;-85
2023/12/17 21:08:37;;;;;;;4.57;3.17;;;;;;;5.50;100.00;101088.03;6276757;22;20034;-84
2023/12/17 21:11:06;;;;;;;4.10;2.95;;;;;;;5.63;100.00;101108.41;6276469;22;20098;-82
2023/12/17 21:13:35;;;;;;;6.07;3.70;;;;;;;5.59;100.00;101108.16;6278183;22;20031;-84
2023/12/17 21:16:04;;;;;;;6.28;3.80;;;;;;;5.45;100.00;101107.38;6275581;22;20015;-83
2023/12/17 21:18:33;;;;;;;6.10;3.50;;;;;;;5.25;100.00;101091.78;6275188;22;20038;-83
2023/12/17 21:21:02;;;;;;;6.10;2.97;;;;;;;5.10;100.00;101085.78;6276286;22;20091;-83
2023/12/17 21:23:31;;;;;;;7.63;3.60;;;;;;;5.09;100.00;101068.63;6280481;22;20098;-82
2023/12/17 21:26:02;;;;;;;3.35;2.47;;;;;;;5.10;100.00;101057.56;6275558;22;20449;-82
2023/12/17 21:28:31;;;;;;;5.50;2.90;;;;;;;5.09;100.00;101058.38;6275640;22;20102;-81
2023/12/17 21:31:01;;;;;;;4.60;2.72;;;;;;;5.07;100.00;101054.84;6275529;22;20023;-84
2023/12/17 21:33:31;;;;;;;4.40;3.55;;;;;;;4.96;100.00;101059.34;6276645;22;20070;-86
2023/12/17 21:36:00;;;;;;;6.28;3.72;;;;;;;4.89;100.00;101053.78;6277374;22;20022;-84
2023/12/17 21:38:30;;;;;;;9.57;5.78;;;;;;;4.93;100.00;101066.88;6277652;22;20019;-88
2023/12/17 21:41:08;;;;;;;5.30;3.42;;;;;;;4.87;100.00;101073.31;6274383;22;20066;-89
2023/12/17 21:43:37;;;;;;;39.85;19.38;;;;;;;4.83;100.00;101065.47;6282300;22;20026;-85
2023/12/17 21:46:08;;;;;;;7.00;3.13;;;;;;;4.82;100.00;101066.25;6277098;22;20020;-84
2023/12/17 21:48:41;;;;;;;34.17;17.60;;;;;;;4.80;100.00;101083.22;6277721;22;20056;-86
2023/12/17 21:51:10;;;;;;;22.25;9.05;;;;;;;4.77;100.00;101089.88;6279600;22;20074;-84
2023/12/17 21:53:42;;;;;;;20.23;9.18;;;;;;;4.73;100.00;101118.69;6281532;22;20022;-89
2023/12/17 21:56:25;;;;;;;10.60;7.07;;;;;;;4.77;100.00;101136.00;6284374;22;20069;-84
2023/12/17 21:58:54;;;;;;;12.15;5.90;;;;;;;4.68;100.00;101131.22;6273816;22;20467;-81
2023/12/17 22:01:22;;;;;;;9.38;5.75;;;;;;;4.66;100.00;101132.81;6281242;22;20034;-83
2023/12/17 22:03:51;;;;;;;7.72;4.63;;;;;;;4.70;100.00;101145.00;6273261;22;20019;-82
2023/12/17 22:06:24;;;;;;;6.15;3.97;;;;;;;4.68;100.00;101154.28;6275416;22;20016;-86
2023/12/17 22:08:52;;;;;;;10.20;5.45;;;;;;;4.63;100.00;101150.56;6276711;22;20050;-83
2023/12/17 22:11:23;;;;;;;8.15;4.70;;;;;;;4.67;100.00;101142.25;6276089;22;20026;-83
2023/12/17 22:13:53;;;;;;;6.20;3.58;;;;;;;4.75;100.00;101141.03;6275284;22;20043;-83
2023/12/17 22:16:25;;;;;;;7.38;3.70;;;;;;;4.83;100.00;101116.75;6276042;22;20094;-82
2023/12/17 22:18:58;;;;;;;6.60;3.78;;;;;;;4.93;100.00;101104.47;6278051;22;20022;-87
2023/12/17 22:21:28;;;;;;;7.32;4.20;;;;;;;4.99;100.00;101072.38;6280291;22;20106;-87
2023/12/17 22:23:57;;;;;;;7.75;4.28;;;;;;;5.07;100.00;101054.84;6275812;22;20024;-86
2023/12/17 22:26:46;;;;;;;6.60;3.72;;;;;;;5.12;100.00;101043.16;6275213;22;20050;-85
2023/12/17 22:29:15;;;;;;;7.57;4.68;;;;;;;5.22;100.00;101044.53;6272505;22;20027;-84
2023/12/17 22:31:52;;;;;;;7.53;4.45;;;;;;;5.25;100.00;101035.34;6277087;22;20019;-85
2023/12/17 22:34:21;;;;;;;8.35;5.32;;;;;;;5.23;100.00;101031.78;6275394;22;20073;-84
2023/12/17 22:36:50;;;;;;;9.75;4.53;;;;;;;5.27;100.00;101055.03;6275379;22;20139;-84
2023/12/17 22:39:19;;;;;;;7.35;4.22;;;;;;;5.33;100.00;101053.72;6287977;22;20020;-85
2023/12/17 22:41:55;;;;;;;6.55;4.10;;;;;;;5.37;100.00;101045.38;6277121;22;20099;-87
2023/12/17 22:44:24;;;;;;;7.00;3.80;;;;;;;5.38;100.00;101036.00;6274716;22;20091;-85
2023/12/17 22:46:54;;;;;;;6.50;4.38;;;;;;;5.39;100.00;101048.94;6276145;22;20031;-86
2023/12/17 22:49:26;;;;;;;8.13;4.50;;;;;;;5.37;100.00;101041.94;6277755;22;20024;-86
2023/12/17 22:51:59;;;;;;;8.60;4.05;;;;;;;5.43;100.00;101037.16;6280384;22;20023;-87
2023/12/17 22:54:28;;;;;;;6.90;4.10;;;;;;;5.48;100.00;101025.44;6279134;22;20102;-84
2023/12/17 22:57:00;;;;;;;12.85;5.70;;;;;;;5.56;100.00;101024.16;6279239;22;20024;-83
2023/12/17 22:59:30;;;;;;;9.05;5.65;;;;;;;5.54;100.00;101022.31;6277879;22;20107;-82
2023/12/17 23:01:59;;;;;;;18.85;9.38;;;;;;;5.49;100.00;101013.50;6278968;22;20028;-83
2023/12/17 23:04:29;;;;;;;29.17;16.67;;;;;;;5.59;100.00;101033.72;6278290;22;20038;-86
2023/12/17 23:06:58;;;;;;;17.55;8.57;;;;;;;5.61;100.00;101030.44;6278118;22;20043;-86
2023/12/17 23:09:41;;;;;;;11.25;6.47;;;;;;;5.64;100.00;101019.47;6286480;22;20045;-87
2023/12/17 23:12:13;;;;;;;11.45;5.82;;;;;;;5.63;100.00;101018.56;6281662;22;20015;-87
2023/12/17 23:14:42;;;;;;;15.43;7.65;;;;;;;5.62;100.00;101027.06;6283211;22;20020;-88
2023/12/17 23:17:14;;;;;;;5.90;4.40;;;;;;;5.62;100.00;101021.94;6284318;22;20046;-83
2023/12/17 23:19:43;;;;;;;7.55;4.72;;;;;;;5.69;100.00;101040.25;6281303;22;20106;-84
2023/12/17 23:22:12;;;;;;;7.35;4.88;;;;;;;5.69;100.00;101038.56;6279386;22;20011;-84
2023/12/17 23:24:42;;;;;;;8.00;3.88;;;;;;;5.72;100.00;101032.69;6276790;22;20016;-84
2023/12/17 23:27:20;;;;;;;8.65;4.68;;;;;;;5.74;100.00;101028.53;6277587;22;20024;-83
2023/12/17 23:29:50;;;;;;;9.20;4.88;;;;;;;5.71;100.00;101026.69;6274205;22;20027;-84
2023/12/17 23:32:20;;;;;;;7.60;4.53;;;;;;;5.76;100.00;101014.97;6275895;22;20091;-83
2023/12/17 23:34:49;;;;;;;8.73;4.45;;;;;;;5.79;100.00;101024.50;6276827;22;20074;-84
2023/12/17 23:37:23;;;;;;;6.68;4.50;;;;;;;5.72;100.00;101017.28;6277548;22;20082;-82
2023/12/17 23:39:52;;;;;;;6.72;4.10;;;;;;;5.75;100.00;101012.31;6277449;22;20012;-85
2023/12/17 23:42:24;;;;;;;8.35;4.47;;;;;;;5.75;100.00;100996.91;6276867;22;20020;-84
2023/12/17 23:45:03;;;;;;;;;;;;;;;;;;;;;
2023/12/17 23:47:33;;;;;;;8.15;4.22;;;;;;;5.66;100.00;100972.53;6275631;22;20463;-85
2023/12/17 23:50:02;;;;;;;8.65;4.32;;;;;;;5.71;100.00;101006.16;6278847;22;20026;-84
2023/12/17 23:52:32;;;;;;;8.40;4.20;;;;;;;5.67;100.00;101007.66;6284358;22;20022;-86
2023/12/17 23:55:06;;;;;;;9.75;5.65;;;;;;;5.63;100.00;101008.28;6280184;22;20026;-85
2023/12/17 23:57:38;;;;;;;8.07;4.55;;;;;;;5.56;100.00;101011.34;6277588;22;20454;-84
